Time;durP1;ratioP1;P1;durP2;ratioP2;P2;SDS_P1;SDS_P2;PMS_P1;PMS_P2;Temp;Humidity;BMP_temperature;BMP_pressure;BME280_temperature;BME280_humidity;BME280_pressure;Samples;Min_cycle;Max_cycle;Signal;HPM_P1;HPM_P2
2023/09/08 06:51:04;;;;;;;15.30;8.07;;;;;;;18.22;75.60;96822.28;2090328;28;20549;-75
2023/09/08 06:53:14;;;;;;;10.88;6.97;;;;;;;18.65;74.14;96829.72;2084263;28;21119;-76
2023/09/08 06:54:16;;;;;;;12.90;7.32;;;;;;;18.75;73.83;96824.56;2072610;28;20698;-76
2023/09/08 06:55:18;;;;;;;16.80;7.05;;;;;;;18.80;73.54;96824.25;2074409;28;20689;-76
2023/09/08 06:56:19;;;;;;;12.77;7.18;;;;;;;19.11;72.62;96827.22;2073565;28;20726;-76
2023/09/08 06:57:21;;;;;;;14.05;7.72;;;;;;;19.03;73.51;96828.69;2073900;28;20860;-76
2023/09/08 06:58:22;;;;;;;12.15;7.03;;;;;;;19.72;71.30;96829.59;2068296;28;20779;-76
2023/09/08 06:59:24;;;;;;;23.75;6.20;;;;;;;19.93;70.56;96837.66;2069154;28;20228;-77
2023/09/08 07:00:25;;;;;;;14.80;6.93;;;;;;;19.84;70.57;96836.56;2069584;28;20190;-76
2023/09/08 07:01:27;;;;;;;9.30;6.00;;;;;;;19.75;70.98;96827.50;2073498;28;20189;-75
2023/09/08 07:02:29;;;;;;;23.88;7.82;;;;;;;20.03;70.29;96828.00;2074642;28;20209;-76
2023/09/08 07:03:36;;;;;;;11.45;7.18;;;;;;;20.28;69.96;96836.63;2071931;28;20281;-76
2023/09/08 07:04:39;;;;;;;9.50;6.55;;;;;;;20.64;68.79;96837.22;2069561;28;20289;-77
2023/09/08 07:05:41;;;;;;;11.30;6.45;;;;;;;20.52;69.33;96836.44;2070711;28;20220;-77
2023/09/08 07:06:43;;;;;;;12.40;7.00;;;;;;;20.96;68.31;96830.25;2070810;28;20198;-76
2023/09/08 07:07:45;;;;;;;10.77;6.15;;;;;;;21.26;67.88;96828.63;2070005;28;20248;-74
2023/09/08 07:08:46;;;;;;;8.63;6.03;;;;;;;22.00;65.75;96831.09;2070498;28;20206;-74
2023/09/08 07:09:48;;;;;;;47.63;32.03;;;;;;;21.73;65.60;96826.38;2070865;28;20209;-76
2023/09/08 07:10:53;;;;;;;13.95;7.53;;;;;;;21.68;66.15;96837.38;2071359;28;20202;-76
2023/09/08 07:11:55;;;;;;;9.95;6.60;;;;;;;21.71;66.04;96838.09;2073150;28;20201;-76
2023/09/08 07:12:56;;;;;;;14.50;6.15;;;;;;;21.49;66.12;96834.63;2070631;28;20788;-76
2023/09/08 07:13:58;;;;;;;12.23;6.22;;;;;;;21.59;66.28;96835.53;2071282;28;20221;-76
2023/09/08 07:15:00;;;;;;;10.40;6.00;;;;;;;21.95;65.64;96835.97;2075423;28;20641;-76
2023/09/08 07:16:01;;;;;;;9.20;5.97;;;;;;;22.37;64.27;96826.97;2075184;28;20544;-76
2023/09/08 07:17:03;;;;;;;9.07;5.13;;;;;;;22.63;63.99;96832.59;2073677;28;20660;-76
2023/09/08 07:18:05;;;;;;;23.40;13.02;;;;;;;22.82;63.50;96836.25;2073578;28;20205;-76
2023/09/08 07:19:06;;;;;;;19.83;14.23;;;;;;;23.49;62.28;96839.00;2072848;28;20213;-76
2023/09/08 07:20:08;;;;;;;9.95;7.40;;;;;;;23.83;61.26;96843.75;2071175;28;20201;-76
2023/09/08 07:21:10;;;;;;;24.17;17.65;;;;;;;23.48;61.84;96839.97;2071982;28;20194;-77
2023/09/08 07:22:11;;;;;;;17.23;8.15;;;;;;;23.46;61.78;96836.59;2071742;28;20246;-74
2023/09/08 07:23:13;;;;;;;15.13;6.37;;;;;;;23.64;61.83;96834.88;2070534;28;20221;-74
2023/09/08 07:24:14;;;;;;;14.10;6.23;;;;;;;23.79;61.27;96839.72;2070467;28;20460;-74
2023/09/08 07:25:16;;;;;;;8.67;6.20;;;;;;;23.82;60.96;96844.75;2071980;28;20435;-74
2023/09/08 07:26:18;;;;;;;15.30;6.23;;;;;;;23.80;61.44;96841.38;2069500;28;20421;-74
2023/09/08 07:27:20;;;;;;;14.30;10.33;;;;;;;23.99;61.09;96840.50;2065823;28;20458;-74
2023/09/08 07:28:21;;;;;;;72.77;51.80;;;;;;;23.90;60.94;96836.03;2072076;28;20455;-74
2023/09/08 07:29:24;;;;;;;7.60;6.00;;;;;;;23.57;61.46;96833.75;2071751;28;20549;-74
2023/09/08 07:30:26;;;;;;;10.13;6.57;;;;;;;23.96;60.96;96836.31;2074324;28;20435;-74
2023/09/08 07:31:27;;;;;;;7.93;6.17;;;;;;;24.23;60.65;96837.28;2074723;28;20800;-72
2023/09/08 07:32:29;;;;;;;11.50;6.07;;;;;;;24.51;59.69;96837.22;2073419;28;20435;-73
2023/09/08 07:33:31;;;;;;;7.40;5.83;;;;;;;24.83;58.68;96833.22;2074602;28;20463;-72
2023/09/08 07:34:32;;;;;;;10.73;5.67;;;;;;;25.09;58.05;96829.78;2071725;28;20590;-73
2023/09/08 07:35:40;;;;;;;7.90;5.50;;;;;;;24.71;59.37;96829.09;2071119;28;20428;-73
2023/09/08 07:36:43;;;;;;;14.53;5.40;;;;;;;24.67;59.62;96833.06;2069899;28;20424;-73
2023/09/08 07:37:44;;;;;;;14.37;6.97;;;;;;;24.97;59.00;96834.50;2074053;28;20510;-73
2023/09/08 07:38:46;;;;;;;6.60;5.77;;;;;;;25.11;58.57;96833.13;2070899;28;20463;-73
2023/09/08 07:39:48;;;;;;;6.20;4.53;;;;;;;24.84;59.26;96834.91;2068408;28;20518;-73
2023/09/08 07:40:50;;;;;;;20.23;4.90;;;;;;;25.22;58.83;96829.38;2070511;28;20431;-73
2023/09/08 07:41:53;;;;;;;9.10;5.10;;;;;;;25.79;57.82;96830.72;2072876;28;20454;-73
2023/09/08 07:42:54;;;;;;;10.40;5.50;;;;;;;25.80;57.41;96829.72;2068922;28;20462;-73
2023/09/08 07:43:56;;;;;;;12.13;5.47;;;;;;;25.89;57.36;96831.44;2069859;28;20897;-73
2023/09/08 07:44:58;;;;;;;10.13;5.40;;;;;;;25.75;57.40;96830.22;2072265;28;20469;-73
2023/09/08 07:45:59;;;;;;;10.10;5.43;;;;;;;25.96;57.17;96837.00;2071032;28;20484;-74
2023/09/08 07:47:01;;;;;;;8.47;5.47;;;;;;;25.68;57.71;96838.00;2068921;28;20423;-73
2023/09/08 07:48:03;;;;;;;8.03;6.03;;;;;;;25.56;58.10;96833.94;2074041;28;20895;-73
2023/09/08 07:49:04;;;;;;;8.07;5.23;;;;;;;25.66;58.13;96833.81;2073506;28;20980;-74
2023/09/08 07:50:18;;;;;;;13.27;5.30;;;;;;;25.88;57.91;96841.28;2072156;28;20514;-73
2023/09/08 07:51:20;;;;;;;8.20;5.27;;;;;;;26.40;56.62;96836.84;2071800;28;20431;-73
2023/09/08 07:52:22;;;;;;;6.27;4.00;;;;;;;26.22;57.09;96834.25;2071463;28;20430;-73
2023/09/08 07:53:23;;;;;;;14.97;5.07;;;;;;;26.36;57.41;96839.00;2070383;28;20462;-73
2023/09/08 07:54:25;;;;;;;6.87;5.07;;;;;;;26.61;56.75;96839.03;2072524;28;20463;-73
2023/09/08 07:55:27;;;;;;;7.80;5.53;;;;;;;26.66;56.10;96839.38;2073881;28;20422;-74
2023/09/08 07:56:28;;;;;;;8.10;4.90;;;;;;;27.39;55.17;96839.63;2072154;28;20437;-73
2023/09/08 07:57:30;;;;;;;9.83;5.30;;;;;;;27.27;55.00;96847.13;2074762;28;20430;-73
2023/09/08 07:58:32;;;;;;;7.10;4.77;;;;;;;26.97;55.80;96846.81;2067034;28;20423;-73
2023/09/08 07:59:34;;;;;;;7.07;4.77;;;;;;;27.29;55.41;96842.44;2067297;28;20451;-73
2023/09/08 08:00:38;;;;;;;8.67;5.00;;;;;;;27.03;55.32;96842.63;2071101;28;20465;-73
2023/09/08 08:01:40;;;;;;;13.83;5.20;;;;;;;27.25;55.21;96840.25;2072403;28;20498;-74
2023/09/08 08:02:46;;;;;;;9.63;6.00;;;;;;;27.30;54.92;96848.63;2073939;28;20434;-73
2023/09/08 08:03:47;;;;;;;6.97;5.10;;;;;;;27.04;55.67;96839.75;2069023;28;20426;-73
2023/09/08 08:04:49;;;;;;;10.33;5.10;;;;;;;27.34;55.05;96837.41;2064029;28;20443;-75
2023/09/08 08:05:50;;;;;;;6.43;5.00;;;;;;;27.04;55.63;96839.75;2064467;28;20466;-73
2023/09/08 08:06:52;;;;;;;8.27;7.23;;;;;;;26.88;56.11;96835.25;2063880;28;20427;-72
2023/09/08 08:07:53;;;;;;;14.57;10.00;;;;;;;27.09;55.78;96843.81;2064612;28;20876;-70
2023/09/08 08:08:56;;;;;;;9.20;7.30;;;;;;;27.29;55.37;96830.91;2067008;28;20463;-72
2023/09/08 08:09:57;;;;;;;9.30;7.23;;;;;;;27.27;55.99;96840.94;2068988;28;20431;-71
2023/09/08 08:10:59;;;;;;;16.23;13.50;;;;;;;27.40;55.20;96833.25;2064961;28;21003;-70
2023/09/08 08:12:00;;;;;;;11.00;9.10;;;;;;;27.08;56.04;96839.44;2068273;28;20436;-72
2023/09/08 08:13:02;;;;;;;14.13;6.37;;;;;;;27.61;54.57;96839.91;2067144;28;20470;-72
2023/09/08 08:14:04;;;;;;;10.57;5.10;;;;;;;27.48;55.20;96840.44;2063127;28;20513;-71
2023/09/08 08:15:06;;;;;;;9.03;5.83;;;;;;;27.68;55.22;96832.84;2064492;28;20428;-72
2023/09/08 08:16:09;;;;;;;8.43;4.70;;;;;;;27.52;55.43;96837.25;2065892;28;20428;-72
2023/09/08 08:17:11;;;;;;;9.10;6.17;;;;;;;27.60;55.41;96843.59;2062134;28;20474;-71
2023/09/08 08:18:13;;;;;;;9.73;5.80;;;;;;;27.49;55.84;96834.06;2064396;28;20482;-71
2023/09/08 08:19:14;;;;;;;10.67;6.00;;;;;;;27.72;55.44;96836.88;2060452;28;20486;-71
2023/09/08 08:20:19;;;;;;;9.27;5.40;;;;;;;27.93;55.72;96832.78;2065828;28;20429;-72
2023/09/08 08:21:22;;;;;;;9.40;5.80;;;;;;;27.61;55.95;96835.38;2067631;28;20433;-72
2023/09/08 08:22:27;;;;;;;6.82;5.07;;;;;;;27.40;56.68;96837.78;2065021;28;20420;-72
2023/09/08 08:23:28;;;;;;;10.40;5.82;;;;;;;27.65;56.38;96839.38;2066326;28;20193;-74
2023/09/08 08:24:30;;;;;;;11.40;5.78;;;;;;;27.72;55.80;96836.88;2064493;28;20693;-73
2023/09/08 08:25:33;;;;;;;7.20;5.80;;;;;;;27.64;55.43;96835.06;2063205;28;20797;-73
2023/09/08 08:26:34;;;;;;;8.40;5.40;;;;;;;27.80;54.69;96836.00;2063588;28;20199;-73
2023/09/08 08:27:35;;;;;;;9.00;5.45;;;;;;;27.60;55.41;96846.28;2065948;28;20290;-74
2023/09/08 08:28:37;;;;;;;8.40;6.10;;;;;;;27.30;55.65;96833.41;2064886;28;20202;-74
2023/09/08 08:29:39;;;;;;;10.07;5.75;;;;;;;27.76;55.84;96838.19;2064842;28;20289;-74
2023/09/08 08:30:40;;;;;;;9.00;6.40;;;;;;;26.82;57.31;96835.91;2066147;28;20202;-74
2023/09/08 08:31:42;;;;;;;13.70;6.15;;;;;;;26.49;57.34;96838.53;2065939;28;20249;-74
2023/09/08 08:32:44;;;;;;;9.98;6.15;;;;;;;26.47;57.65;96837.00;2068235;28;20228;-74
2023/09/08 08:33:45;;;;;;;8.32;6.00;;;;;;;26.44;58.69;96840.03;2066726;28;20214;-73
2023/09/08 08:34:46;;;;;;;9.07;6.40;;;;;;;26.14;59.03;96829.72;2069256;28;20621;-73
2023/09/08 08:35:50;;;;;;;12.68;6.47;;;;;;;26.40;58.41;96834.16;2067392;28;20258;-73
2023/09/08 08:36:51;;;;;;;9.18;5.72;;;;;;;26.35;58.60;96831.13;2070798;28;20284;-73
2023/09/08 08:37:53;;;;;;;10.05;6.22;;;;;;;27.29;57.06;96828.22;2069870;28;20201;-74
2023/09/08 08:38:54;;;;;;;8.07;5.80;;;;;;;27.60;56.91;96835.56;2061850;28;20253;-73
2023/09/08 08:39:56;;;;;;;10.05;5.82;;;;;;;27.13;57.43;96826.38;2065755;28;20285;-73
2023/09/08 08:41:03;;;;;;;18.98;6.65;;;;;;;27.18;57.29;96832.06;2068411;28;20198;-74
2023/09/08 08:42:11;;;;;;;9.13;5.10;;;;;;;27.06;57.98;96834.25;2066933;28;20202;-74
2023/09/08 08:43:13;;;;;;;14.02;6.05;;;;;;;26.68;58.28;96831.19;2067086;28;20198;-73
2023/09/08 08:44:18;;;;;;;13.48;6.38;;;;;;;26.46;58.83;96827.31;2066342;28;20616;-73
2023/09/08 08:45:22;;;;;;;11.60;6.15;;;;;;;26.41;58.78;96830.50;2061626;28;20190;-73
2023/09/08 08:46:24;;;;;;;9.52;6.72;;;;;;;26.37;59.00;96829.13;2064561;28;20556;-73
2023/09/08 08:47:28;;;;;;;9.88;6.15;;;;;;;26.12;60.10;96834.41;2065325;28;20199;-73
2023/09/08 08:48:31;;;;;;;9.52;6.65;;;;;;;26.09;59.94;96832.03;2067002;28;20198;-73
2023/09/08 08:49:33;;;;;;;11.98;6.15;;;;;;;26.67;59.04;96829.53;2067781;28;20198;-73
2023/09/08 08:50:36;;;;;;;13.75;9.45;;;;;;;26.88;58.78;96839.75;2066876;28;20210;-73
2023/09/08 08:51:39;;;;;;;14.20;8.23;;;;;;;26.47;59.04;96837.00;2067439;28;20248;-73
2023/09/08 08:52:40;;;;;;;15.48;9.88;;;;;;;26.30;59.20;96828.13;2067451;28;20290;-73
2023/09/08 08:53:42;;;;;;;12.32;7.70;;;;;;;26.33;59.31;96833.97;2064459;28;20407;-72
2023/09/08 08:54:45;;;;;;;12.30;6.00;;;;;;;26.32;59.00;96829.63;2064660;28;20654;-73
2023/09/08 08:55:49;;;;;;;13.43;7.10;;;;;;;26.11;60.05;96830.06;2063226;28;20213;-73
2023/09/08 08:56:51;;;;;;;7.78;5.70;;;;;;;26.43;59.62;96828.47;2059620;28;20253;-73
2023/09/08 08:57:53;;;;;;;13.57;6.38;;;;;;;26.40;59.13;96831.47;2063752;28;20281;-73
2023/09/08 08:58:54;;;;;;;8.25;5.57;;;;;;;26.80;58.77;96832.56;2063838;28;20222;-73
2023/09/08 08:59:59;;;;;;;10.23;5.82;;;;;;;26.34;59.47;96832.97;2064028;28;20195;-73
2023/09/08 09:01:03;;;;;;;10.57;5.63;;;;;;;26.27;59.56;96834.63;2062883;28;20227;-73
2023/09/08 09:02:05;;;;;;;11.40;6.70;;;;;;;26.02;60.25;96826.47;2064622;28;20802;-73
2023/09/08 09:03:08;;;;;;;9.57;6.47;;;;;;;26.12;59.69;96834.41;2063876;28;20226;-72
2023/09/08 09:04:17;;;;;;;11.27;6.13;;;;;;;26.42;60.25;96831.31;2064970;28;20241;-72
2023/09/08 09:05:20;;;;;;;12.80;6.53;;;;;;;26.33;59.71;96825.09;2074368;28;20194;-73
2023/09/08 09:06:21;;;;;;;16.10;6.05;;;;;;;26.57;59.95;96829.66;2065660;28;20210;-74
2023/09/08 09:07:24;;;;;;;16.80;6.13;;;;;;;26.92;58.71;96826.88;2067666;28;20217;-74
2023/09/08 09:08:26;;;;;;;15.88;5.80;;;;;;;26.84;58.73;96825.03;2064166;28;20654;-74
2023/09/08 09:09:28;;;;;;;15.75;6.68;;;;;;;27.04;57.87;96823.69;2061412;28;20217;-74
2023/09/08 09:10:31;;;;;;;10.20;7.05;;;;;;;26.84;58.07;96825.88;2063933;28;20297;-74
2023/09/08 09:11:33;;;;;;;8.63;6.28;;;;;;;27.37;57.05;96829.03;2064993;28;20241;-74
2023/09/08 09:12:38;;;;;;;9.07;6.65;;;;;;;27.34;57.22;96823.19;2064267;28;20198;-74
2023/09/08 09:13:39;;;;;;;9.55;5.70;;;;;;;27.25;57.40;96818.81;2062420;28;20196;-74
2023/09/08 09:14:47;;;;;;;13.60;6.68;;;;;;;27.06;57.98;96820.88;2069510;28;20198;-73
2023/09/08 09:15:50;;;;;;;10.73;6.60;;;;;;;27.59;57.46;96825.84;2065568;28;20198;-73
2023/09/08 09:16:55;;;;;;;11.10;6.25;;;;;;;27.94;56.67;96826.41;2065323;28;20197;-73
2023/09/08 09:18:05;;;;;;;9.13;5.75;;;;;;;28.06;56.23;96825.03;2067358;28;20318;-72
2023/09/08 09:19:07;;;;;;;10.05;6.43;;;;;;;27.88;56.17;96821.72;2066269;28;20226;-72
2023/09/08 09:20:17;;;;;;;7.43;6.00;;;;;;;27.78;56.17;96828.13;2067172;28;20719;-73
2023/09/08 09:21:19;;;;;;;13.48;6.57;;;;;;;27.90;55.72;96828.59;2065302;28;20209;-73
2023/09/08 09:22:21;;;;;;;15.77;6.43;;;;;;;27.76;56.37;96826.63;2067458;28;20190;-72
2023/09/08 09:23:33;;;;;;;10.63;6.68;;;;;;;27.54;56.50;96834.38;2065569;28;20195;-72
2023/09/08 09:24:43;;;;;;;10.00;6.18;;;;;;;27.83;56.32;96825.78;2063669;28;20270;-72
2023/09/08 09:25:45;;;;;;;6.68;4.95;;;;;;;28.90;54.43;96829.75;2063941;28;20354;-73
2023/09/08 09:26:52;;;;;;;11.98;6.03;;;;;;;29.88;52.45;96821.81;2067127;28;20226;-73
2023/09/08 09:27:56;;;;;;;10.20;6.32;;;;;;;28.78;53.27;96832.00;2067792;28;20212;-73
2023/09/08 09:28:59;;;;;;;20.92;12.32;;;;;;;28.38;55.15;96828.56;2066669;28;20225;-71
2023/09/08 09:30:00;;;;;;;17.30;11.52;;;;;;;28.44;55.54;96835.94;2066185;28;20202;-71
2023/09/08 09:31:02;;;;;;;8.73;5.70;;;;;;;28.70;55.13;96834.78;2066487;28;20720;-71
2023/09/08 09:32:06;;;;;;;18.52;6.78;;;;;;;28.48;54.58;96826.50;2065184;28;20247;-73
2023/09/08 09:33:08;;;;;;;11.63;6.13;;;;;;;28.88;54.34;96836.34;2063380;28;20194;-72
2023/09/08 09:34:09;;;;;;;6.47;5.28;;;;;;;28.51;55.33;96830.66;2062901;28;20227;-72
2023/09/08 09:35:11;;;;;;;10.57;5.28;;;;;;;28.62;55.70;96832.09;2068325;28;20198;-73
2023/09/08 09:36:22;;;;;;;19.40;6.60;;;;;;;28.46;56.21;96828.50;2064295;28;20195;-73
2023/09/08 09:37:24;;;;;;;13.15;5.65;;;;;;;28.34;56.87;96835.28;2061879;28;20244;-72
2023/09/08 09:38:26;;;;;;;13.23;6.70;;;;;;;28.47;56.65;96832.88;2064598;28;20656;-73
2023/09/08 09:39:28;;;;;;;9.38;5.38;;;;;;;28.76;56.16;96828.69;2064973;28;20298;-72
2023/09/08 09:40:31;;;;;;;10.68;6.05;;;;;;;29.76;54.98;96831.31;2067738;28;20285;-72
2023/09/08 09:41:33;;;;;;;15.27;5.30;;;;;;;30.75;52.59;96822.84;2067663;28;20204;-73
2023/09/08 09:42:38;;;;;;;7.47;5.50;;;;;;;31.04;51.38;96822.88;2066749;28;20201;-72
2023/09/08 09:43:40;;;;;;;10.77;5.23;;;;;;;30.66;51.44;96823.97;2064533;28;20319;-72
2023/09/08 09:44:42;;;;;;;9.40;5.60;;;;;;;30.48;52.16;96823.59;2066976;28;20511;-73
2023/09/08 09:45:44;;;;;;;9.70;5.70;;;;;;;30.20;52.44;96826.97;2066010;28;20433;-72
2023/09/08 09:46:46;;;;;;;15.17;5.50;;;;;;;30.54;50.78;96825.53;2067045;28;20527;-72
2023/09/08 09:47:47;;;;;;;8.93;5.67;;;;;;;30.18;52.28;96829.81;2065598;28;20435;-72
2023/09/08 09:48:58;;;;;;;17.67;6.90;;;;;;;30.77;50.99;96828.03;2067162;28;20528;-72
2023/09/08 09:50:00;;;;;;;10.73;6.00;;;;;;;30.93;51.27;96824.22;2066082;28;20565;-72
2023/09/08 09:51:16;;;;;;;10.90;5.10;;;;;;;31.42;50.19;96823.41;2066620;28;20434;-72
2023/09/08 09:52:23;;;;;;;17.30;5.00;;;;;;;30.81;50.59;96825.78;2064926;28;20429;-71
2023/09/08 09:53:25;;;;;;;14.73;6.13;;;;;;;31.48;50.00;96827.22;2066338;28;20428;-72
2023/09/08 09:54:29;;;;;;;9.37;5.57;;;;;;;32.10;49.06;96827.41;2064629;28;20510;-72
2023/09/08 09:55:32;;;;;;;14.20;5.80;;;;;;;32.26;48.60;96828.94;2064471;28;20456;-73
2023/09/08 09:56:36;;;;;;;8.93;5.23;;;;;;;32.59;48.56;96830.91;2054462;28;20433;-73
2023/09/08 09:57:38;;;;;;;12.67;5.23;;;;;;;32.48;47.71;96826.09;2061196;28;20462;-73
2023/09/08 09:58:41;;;;;;;14.13;4.70;;;;;;;32.62;48.14;96819.69;2068440;28;20973;-72
2023/09/08 09:59:43;;;;;;;15.53;5.00;;;;;;;33.18;47.14;96826.66;2063439;28;20432;-70
2023/09/08 10:00:47;;;;;;;14.93;5.00;;;;;;;32.82;47.32;96827.84;2060891;28;20436;-65
2023/09/08 10:01:53;;;;;;;15.10;5.27;;;;;;;32.33;47.45;96828.94;2061152;28;20571;-64
2023/09/08 10:02:56;;;;;;;9.10;5.40;;;;;;;32.65;47.53;96824.69;2066490;28;20431;-64
2023/09/08 10:03:59;;;;;;;18.57;6.50;;;;;;;32.75;47.32;96827.03;2065476;28;20452;-64
2023/09/08 10:05:11;;;;;;;9.63;5.50;;;;;;;32.21;48.07;96818.75;2065591;28;20424;-64
2023/09/08 10:06:14;;;;;;;12.03;5.90;;;;;;;31.86;48.26;96831.44;2063403;28;20434;-63
2023/09/08 10:07:17;;;;;;;19.97;5.43;;;;;;;32.22;48.45;96827.66;2065768;28;20424;-64
2023/09/08 10:08:19;;;;;;;12.97;9.10;;;;;;;32.02;48.22;96824.84;2068637;28;20832;-64
2023/09/08 10:09:21;;;;;;;37.37;26.27;;;;;;;32.35;47.83;96825.03;2064472;28;20554;-64
2023/09/08 10:10:26;;;;;;;54.83;43.87;;;;;;;33.52;46.80;96821.22;2067389;28;20419;-65
2023/09/08 10:11:57;;;;;;;11.80;5.37;;;;;;;33.05;46.53;96822.06;2068364;28;20429;-65
2023/09/08 10:13:03;;;;;;;11.20;5.40;;;;;;;34.30;44.71;96819.59;2066445;28;20469;-65
2023/09/08 10:14:07;;;;;;;21.43;5.80;;;;;;;34.77;43.51;96820.19;2065752;28;20456;-64
2023/09/08 10:15:10;;;;;;;19.07;5.00;;;;;;;34.77;43.80;96825.59;2067196;28;20428;-65
2023/09/08 10:16:15;;;;;;;10.70;4.70;;;;;;;34.69;43.35;96820.44;2066548;28;20958;-64
2023/09/08 10:17:22;;;;;;;11.53;5.10;;;;;;;35.24;42.57;96822.56;2069069;28;20494;-64
2023/09/08 10:18:25;;;;;;;17.30;4.73;;;;;;;35.44;42.46;96821.59;2068903;28;20423;-65
2023/09/08 10:19:27;;;;;;;10.37;4.63;;;;;;;35.68;42.07;96813.63;2068438;28;20460;-64
2023/09/08 10:20:31;;;;;;;8.53;4.57;;;;;;;34.71;43.09;96821.03;2065838;28;20431;-64
2023/09/08 10:21:36;;;;;;;11.17;5.70;;;;;;;31.63;47.93;96818.19;2065932;28;20428;-64
2023/09/08 10:22:41;;;;;;;6.77;4.90;;;;;;;32.12;47.70;96810.97;2064092;28;20428;-65
2023/09/08 10:23:59;;;;;;;12.23;5.10;;;;;;;32.26;47.17;96812.72;2064922;28;20416;-64
2023/09/08 10:25:05;;;;;;;9.93;5.20;;;;;;;34.11;44.62;96816.75;2068689;28;20486;-65
2023/09/08 10:26:10;;;;;;;7.20;4.87;;;;;;;35.06;43.00;96812.50;2060794;28;20794;-65
2023/09/08 10:27:12;;;;;;;13.70;4.80;;;;;;;35.11;43.63;96812.66;2067853;28;20423;-65
2023/09/08 10:28:15;;;;;;;8.23;4.80;;;;;;;35.66;42.49;96813.06;2065572;28;20498;-65
2023/09/08 10:29:18;;;;;;;6.80;4.33;;;;;;;35.35;42.27;96817.47;2065064;28;20916;-65
2023/09/08 10:30:21;;;;;;;9.20;4.80;;;;;;;35.38;42.33;96808.94;2065605;28;20479;-66
2023/09/08 10:31:26;;;;;;;7.20;4.87;;;;;;;35.48;42.64;96810.06;2065787;28;20433;-65
2023/09/08 10:32:28;;;;;;;8.80;5.07;;;;;;;34.00;44.80;96818.25;2065856;28;20518;-65
2023/09/08 10:33:31;;;;;;;9.27;4.73;;;;;;;35.33;43.46;96809.56;2067307;28;20439;-64
2023/09/08 10:34:34;;;;;;;6.63;4.10;;;;;;;36.13;41.62;96816.91;2066182;28;20511;-63
2023/09/08 10:35:36;;;;;;;8.13;4.30;;;;;;;36.61;41.53;96814.44;2066832;28;20507;-63
2023/09/08 10:36:38;;;;;;;6.30;4.70;;;;;;;34.57;42.72;96811.34;2067579;28;20480;-63
2023/09/08 10:37:40;;;;;;;9.20;5.40;;;;;;;32.82;45.77;96811.63;2067299;28;20439;-63
2023/09/08 10:38:47;;;;;;;8.63;4.30;;;;;;;32.73;45.86;96812.84;2066193;28;20442;-62
2023/09/08 10:39:48;;;;;;;21.00;5.10;;;;;;;31.32;49.16;96808.63;2067946;28;20423;-62
2023/09/08 10:40:51;;;;;;;8.97;5.10;;;;;;;31.06;48.91;96802.00;2066424;28;20434;-63
2023/09/08 10:42:19;;;;;;;15.03;5.43;;;;;;;33.45;45.28;96809.59;2064345;28;20428;-63
2023/09/08 10:43:21;;;;;;;16.17;5.00;;;;;;;33.40;45.26;96804.00;2059958;28;20428;-62
2023/09/08 10:44:22;;;;;;;11.80;5.87;;;;;;;33.88;44.66;96809.13;2060047;28;20468;-63
2023/09/08 10:45:25;;;;;;;8.13;4.97;;;;;;;35.04;43.02;96805.63;2061751;28;20424;-63
2023/09/08 10:46:27;;;;;;;10.20;4.80;;;;;;;35.31;42.73;96807.06;2065828;28;20443;-63
2023/09/08 10:47:41;;;;;;;11.47;5.10;;;;;;;35.26;43.10;96809.63;2064051;28;20436;-62
2023/09/08 10:48:43;;;;;;;4.83;3.83;;;;;;;35.53;42.34;96803.97;2069068;28;20453;-63
2023/09/08 10:49:45;;;;;;;7.20;4.67;;;;;;;35.60;42.03;96807.44;2072706;28;20427;-63
2023/09/08 10:50:47;;;;;;;8.53;5.23;;;;;;;34.05;44.65;96809.47;2072596;28;20839;-63
2023/09/08 10:51:49;;;;;;;19.47;5.10;;;;;;;35.38;42.88;96811.66;2066694;28;20950;-64
2023/09/08 10:53:17;;;;;;;10.57;5.00;;;;;;;36.85;41.31;96806.38;2064957;28;20476;-64
2023/09/08 10:54:42;;;;;;;8.00;5.23;;;;;;;35.90;41.64;96809.47;2064639;28;20528;-64
2023/09/08 10:55:51;;;;;;;8.77;4.73;;;;;;;35.28;42.73;96807.50;2061132;28;21220;-64
2023/09/08 10:57:17;;;;;;;10.60;4.90;;;;;;;35.64;42.15;96807.81;2062912;28;20504;-64
2023/09/08 10:58:28;;;;;;;8.83;4.63;;;;;;;35.29;42.46;96808.34;2065664;28;20480;-64
2023/09/08 10:59:35;;;;;;;9.47;4.67;;;;;;;33.50;45.27;96805.22;2059877;28;20928;-64
2023/09/08 11:00:48;;;;;;;5.83;4.30;;;;;;;34.61;44.15;96802.53;2057853;28;20524;-64
2023/09/08 11:01:49;;;;;;;9.07;5.00;;;;;;;35.89;42.43;96802.34;2066180;28;20463;-64
2023/09/08 11:02:50;;;;;;;11.40;4.27;;;;;;;36.03;42.07;96805.75;2064521;28;20443;-63
2023/09/08 11:03:53;;;;;;;18.70;4.67;;;;;;;36.30;41.24;96810.84;2063412;28;20455;-64
2023/09/08 11:04:55;;;;;;;8.93;4.50;;;;;;;34.90;43.35;96805.72;2064019;28;20429;-64
2023/09/08 11:05:57;;;;;;;8.67;4.70;;;;;;;35.44;42.89;96808.88;2065839;28;20427;-64
2023/09/08 11:06:58;;;;;;;11.50;4.77;;;;;;;36.09;41.28;96813.00;2067506;28;20835;-64
2023/09/08 11:08:00;;;;;;;10.20;4.60;;;;;;;36.65;41.09;96809.38;2066234;28;20438;-64
2023/09/08 11:09:09;;;;;;;12.47;4.90;;;;;;;35.29;42.10;96808.34;2060635;28;20993;-64
2023/09/08 11:10:12;;;;;;;12.80;4.30;;;;;;;35.90;41.58;96801.31;2062242;28;20435;-64
2023/09/08 11:11:15;;;;;;;8.63;4.30;;;;;;;36.78;40.68;96807.28;2063795;28;20515;-64
2023/09/08 11:12:16;;;;;;;7.37;4.20;;;;;;;36.63;41.04;96806.06;2063693;28;20792;-64
2023/09/08 11:13:18;;;;;;;8.97;4.20;;;;;;;36.29;41.97;96807.31;2062160;28;20478;-64
2023/09/08 11:14:19;;;;;;;6.63;3.97;;;;;;;36.61;41.18;96806.28;2059949;28;20463;-64
2023/09/08 11:15:21;;;;;;;11.50;5.47;;;;;;;35.60;41.88;96796.56;2064200;28;20470;-64
2023/09/08 11:16:29;;;;;;;10.73;5.70;;;;;;;36.51;41.20;96804.13;2063901;28;20517;-64
2023/09/08 11:17:32;;;;;;;7.43;4.23;;;;;;;36.22;42.05;96800.31;2066538;28;20440;-64
2023/09/08 11:18:34;;;;;;;17.17;4.37;;;;;;;37.50;40.89;96811.00;2065784;28;20474;-64
2023/09/08 11:19:49;;;;;;;15.57;7.10;;;;;;;34.22;43.51;96811.69;2066166;28;20428;-73
2023/09/08 11:20:52;;;;;;;12.63;4.60;;;;;;;34.79;43.68;96804.53;2065954;28;20427;-73
2023/09/08 11:21:55;;;;;;;9.40;5.53;;;;;;;35.52;42.05;96805.03;2064319;28;20443;-73
2023/09/08 11:22:57;;;;;;;9.23;4.90;;;;;;;35.50;42.70;96807.13;2068378;28;20869;-73
2023/09/08 11:23:58;;;;;;;5.20;4.30;;;;;;;35.45;42.28;96809.69;2066339;28;20459;-73
2023/09/08 11:25:04;;;;;;;6.63;4.50;;;;;;;34.87;43.62;96802.63;2062027;28;20915;-73
2023/09/08 11:26:08;;;;;;;11.40;4.90;;;;;;;35.74;42.87;96804.59;2063789;28;20770;-73
2023/09/08 11:27:11;;;;;;;8.23;4.23;;;;;;;36.15;41.68;96803.13;2061583;28;20945;-73
2023/09/08 11:28:13;;;;;;;5.20;4.10;;;;;;;36.44;41.13;96803.38;2064581;28;20423;-73
2023/09/08 11:29:15;;;;;;;11.30;4.70;;;;;;;36.95;40.91;96808.53;2065056;28;20465;-74
2023/09/08 11:30:17;;;;;;;13.00;5.40;;;;;;;36.85;41.34;96809.09;2065652;28;20518;-73
2023/09/08 11:31:19;;;;;;;11.83;4.50;;;;;;;36.51;40.86;96808.75;2064936;28;21402;-73
2023/09/08 11:32:20;;;;;;;11.57;4.93;;;;;;;36.69;41.28;96807.84;2063439;28;20427;-73
2023/09/08 11:33:26;;;;;;;11.73;5.10;;;;;;;36.55;40.68;96807.22;2065063;28;20431;-73
2023/09/08 11:34:29;;;;;;;10.03;5.63;;;;;;;36.39;41.59;96811.41;2066365;28;20490;-73
2023/09/08 11:35:32;;;;;;;6.73;4.60;;;;;;;37.18;40.14;96803.13;2065999;28;20523;-73
2023/09/08 11:36:34;;;;;;;7.83;4.47;;;;;;;37.35;39.88;96807.91;2066972;28;20443;-73
2023/09/08 11:37:38;;;;;;;6.77;4.60;;;;;;;37.16;39.82;96801.72;2062678;28;20939;-73
2023/09/08 11:38:41;;;;;;;8.93;4.57;;;;;;;35.56;42.60;96803.50;2062254;28;20432;-73
2023/09/08 11:39:44;;;;;;;8.83;4.60;;;;;;;36.61;41.26;96809.00;2065463;28;21032;-74
2023/09/08 11:40:45;;;;;;;8.73;4.33;;;;;;;37.27;40.17;96803.63;2062259;28;20436;-73
2023/09/08 11:41:46;;;;;;;8.97;4.33;;;;;;;36.75;40.47;96805.03;2061059;28;20527;-73
2023/09/08 11:42:48;;;;;;;8.83;4.07;;;;;;;36.43;41.55;96805.28;2063317;28;20433;-73
2023/09/08 11:43:50;;;;;;;6.30;4.30;;;;;;;36.77;40.86;96802.91;2062567;28;20503;-73
2023/09/08 11:44:51;;;;;;;7.07;4.10;;;;;;;37.14;39.74;96803.84;2065854;28;20430;-73
2023/09/08 11:45:53;;;;;;;7.50;4.30;;;;;;;37.25;39.95;96803.84;2066094;28;20424;-73
2023/09/08 11:46:54;;;;;;;6.73;4.10;;;;;;;37.15;40.46;96811.75;2067503;28;20787;-73
2023/09/08 11:47:57;;;;;;;11.93;5.43;;;;;;;34.22;43.93;96799.00;2067785;28;20918;-73
2023/09/08 11:48:59;;;;;;;9.53;4.43;;;;;;;34.77;43.67;96800.38;2066419;28;20464;-73